Airfield :
LOGIN :

Register | Disclaimer

   EN    FR    IT 

 










Legend :    VFR   Marginal VFR   IFR   Intensive IFR   Very Intensive IFR
Visi :
Ceiling :
>= 8 km
>= 3000ft
5 to 8 km
1000 to 3000 ft
1500m to 5 km
500 to 1000 ft
800 to 1500m
200 to 500 ft
< 800m
< 200 ft
Symbols :   Thunderstorms  Fog  Heavy snow  Heavy precipitations  Wind > 20 kt
SIGMETs :     Misc.  Thunderstorms  Icing  Turbulence  Mountain Waves  Volcanic Ashes







- Airport Elevation : 1959 ft
- IATA code : HOQ


EDQM - Hof Plauen

CURRENT METAR :
  • 191050Z 23012KT 210V270 9999 SCT048 BKN061 06/01 Q1018

EXPIRED METARs :
  • 191020Z 22011KT 9999 SCT046 BKN051 06/00 Q1018
  • 190950Z 22011KT 9999 BKN046 05/M00 Q1018
  • 190920Z 23011KT 9999 BKN045 06/M00 Q1017
  • 190850Z 23011KT CAVOK 05/M00 Q1017
  • 190820Z 23009KT CAVOK 05/M01 Q1017

TAF TAF EDQM
Valid from the 19 at 09:00 until the 19 at 18:00 UTC


190800Z 1909/1918 23010KT 9999 BKN040
TEMPO 1913/1918 24015G25KT BKN013
No reported NOTAMs for that airfield.



MET'MAP, your aeronautical weather chart ! - Copyright ORBIFLY December 2007 - Disclaimer

ORBIFLY MET'MAP TEAM :

Programming & Development : Alexandra Zaïnal
Concept & Development : Baudouin d'Aumeries
Co-Development & Prog : Marc-Olivier Méhu
Technical & hardware support : Manuel Goepfert

Contact : metmap@orbifly.com




SOURCES & CREDITS :

   NOAA